createdAt,value
2022-08-29T00:01:49.902Z,11.60
2022-08-29T00:04:17.181Z,11.58
2022-08-29T00:06:44.153Z,11.54
2022-08-29T00:09:11.593Z,11.47
2022-08-29T00:11:43.425Z,11.53
2022-08-29T00:14:21.104Z,11.33
2022-08-29T00:16:50.813Z,11.46
2022-08-29T00:19:17.817Z,11.46
2022-08-29T00:21:44.800Z,11.46
2022-08-29T00:24:12.033Z,11.43
2022-08-29T00:26:39.031Z,11.42
2022-08-29T00:29:05.996Z,11.37
2022-08-29T00:31:33.170Z,11.39
2022-08-29T00:34:00.264Z,11.33
2022-08-29T00:36:27.390Z,11.35
2022-08-29T00:38:58.332Z,11.32
2022-08-29T00:41:25.508Z,11.30
2022-08-29T00:43:52.480Z,11.29
2022-08-29T00:46:43.900Z,11.24
2022-08-29T00:49:36.802Z,11.04
2022-08-29T00:52:08.825Z,11.18
2022-08-29T00:54:37.354Z,11.17
2022-08-29T00:57:05.237Z,11.08
2022-08-29T00:59:36.931Z,11.11
2022-08-29T01:02:05.183Z,11.10
2022-08-29T01:04:32.720Z,11.07
2022-08-29T01:07:00.418Z,11.06
2022-08-29T01:09:28.514Z,11.03
2022-08-29T01:12:14.876Z,11.01
2022-08-29T01:14:50.904Z,10.99
2022-08-29T01:17:28.202Z,10.97
2022-08-29T01:20:00.777Z,10.77
2022-08-29T01:22:54.253Z,10.92
2022-08-29T01:25:24.720Z,10.90
2022-08-29T01:27:59.630Z,10.87
2022-08-29T01:30:26.609Z,10.63
2022-08-29T01:32:53.568Z,10.82
2022-08-29T01:35:20.833Z,10.80
2022-08-29T01:37:48.088Z,10.40
2022-08-29T01:40:15.332Z,10.77
2022-08-29T01:42:42.629Z,10.74
2022-08-29T01:45:10.636Z,10.72
2022-08-29T01:47:38.951Z,10.72
2022-08-29T01:50:10.608Z,10.69
2022-08-29T01:52:37.613Z,10.66
2022-08-29T01:55:05.149Z,10.58
2022-08-29T01:57:32.115Z,10.60
2022-08-29T01:59:59.564Z,10.60
2022-08-29T02:02:29.363Z,10.47
2022-08-29T02:04:58.921Z,10.56
2022-08-29T02:07:26.594Z,10.53
2022-08-29T02:09:53.773Z,10.50
2022-08-29T02:12:21.736Z,10.47
2022-08-29T02:14:50.757Z,10.45
2022-08-29T02:17:18.184Z,10.43
2022-08-29T02:19:46.138Z,10.42
2022-08-29T02:22:13.929Z,10.13
2022-08-29T02:24:42.548Z,10.37
2022-08-29T02:27:10.665Z,10.21
2022-08-29T02:29:38.501Z,10.28
2022-08-29T02:32:14.685Z,10.32
2022-08-29T02:34:44.513Z,10.31
2022-08-29T02:37:13.029Z,10.29
2022-08-29T02:39:40.263Z,10.26
2022-08-29T02:42:07.425Z,10.25
2022-08-29T02:44:34.528Z,10.23
2022-08-29T02:47:01.676Z,10.20
2022-08-29T02:49:28.620Z,10.19
2022-08-29T02:51:57.470Z,10.13
2022-08-29T02:54:24.485Z,10.14
2022-08-29T02:56:51.549Z,10.12
2022-08-29T02:59:18.753Z,10.11
2022-08-29T03:01:45.993Z,10.04
2022-08-29T03:04:12.987Z,10.07
2022-08-29T03:06:39.912Z,10.03
2022-08-29T03:09:07.145Z,10.03
2022-08-29T03:11:34.328Z,10.00
2022-08-29T03:14:01.530Z,10.00
2022-08-29T03:16:29.533Z,9.96
2022-08-29T03:18:56.971Z,9.95
2022-08-29T03:21:26.658Z,9.92
2022-08-29T03:23:56.425Z,9.93
2022-08-29T03:26:24.325Z,9.90
2022-08-29T03:28:51.341Z,9.89
2022-08-29T03:31:18.981Z,9.86
2022-08-29T03:33:46.136Z,9.84
2022-08-29T03:36:13.932Z,9.83
2022-08-29T03:38:46.669Z,9.82
2022-08-29T03:41:24.086Z,9.81
2022-08-29T03:43:51.881Z,9.82
2022-08-29T03:46:18.887Z,9.81
2022-08-29T03:48:45.872Z,9.81
2022-08-29T03:51:12.920Z,9.78
2022-08-29T03:53:40.875Z,9.81
2022-08-29T03:56:08.357Z,9.81
2022-08-29T03:58:38.415Z,9.81
2022-08-29T04:01:06.341Z,9.72
2022-08-29T04:03:33.457Z,9.82
2022-08-29T04:06:00.954Z,9.82
2022-08-29T04:08:28.000Z,9.79
2022-08-29T04:10:55.252Z,9.76
2022-08-29T04:13:22.492Z,9.84
2022-08-29T04:15:50.250Z,9.84
2022-08-29T04:18:21.319Z,9.84
2022-08-29T04:20:49.632Z,9.83
2022-08-29T04:23:16.883Z,9.86
2022-08-29T04:25:44.533Z,9.87
2022-08-29T04:28:13.829Z,9.90
2022-08-29T04:30:51.391Z,9.91
2022-08-29T04:33:22.740Z,9.87
2022-08-29T04:35:50.704Z,9.94
2022-08-29T04:38:38.129Z,9.96
2022-08-29T04:41:32.944Z,10.00
2022-08-29T04:44:21.533Z,10.04
2022-08-29T04:47:08.449Z,10.08
2022-08-29T04:49:55.643Z,10.13
2022-08-29T04:52:43.416Z,10.18
2022-08-29T04:55:30.880Z,10.23
2022-08-29T04:58:18.304Z,10.28
2022-08-29T05:01:05.866Z,10.33
2022-08-29T05:03:53.748Z,10.39
2022-08-29T05:06:43.325Z,10.44
2022-08-29T05:09:30.212Z,10.49
2022-08-29T05:12:17.198Z,10.56
2022-08-29T05:15:04.158Z,10.58
2022-08-29T05:17:51.487Z,10.65
2022-08-29T05:20:38.366Z,10.69
2022-08-29T05:23:25.331Z,10.74
2022-08-29T05:26:21.805Z,10.78
2022-08-29T05:29:09.054Z,10.83
2022-08-29T05:31:57.452Z,10.88
2022-08-29T05:34:44.497Z,10.92
2022-08-29T05:37:35.189Z,10.96
2022-08-29T05:40:22.578Z,11.00
2022-08-29T05:43:09.520Z,11.04
2022-08-29T05:45:57.475Z,11.09
2022-08-29T05:48:44.429Z,11.12
2022-08-29T05:51:39.941Z,11.18
2022-08-29T05:54:30.366Z,11.23
2022-08-29T05:57:19.296Z,11.28
2022-08-29T06:00:08.240Z,11.32
2022-08-29T06:02:59.530Z,11.37
2022-08-29T06:05:46.554Z,11.43
2022-08-29T06:08:33.797Z,11.47
2022-08-29T06:11:20.760Z,11.52
2022-08-29T06:14:07.937Z,11.58
2022-08-29T06:16:54.767Z,11.63
2022-08-29T06:19:42.278Z,11.68
2022-08-29T06:22:30.459Z,11.73
2022-08-29T06:25:38.041Z,11.78
2022-08-29T06:28:24.929Z,11.86
2022-08-29T06:31:12.013Z,11.84
2022-08-29T06:34:00.052Z,11.98
2022-08-29T06:36:49.150Z,12.06
2022-08-29T06:39:36.106Z,12.11
2022-08-29T06:42:23.231Z,12.18
2022-08-29T06:45:10.286Z,12.24
2022-08-29T06:47:57.425Z,12.27
2022-08-29T06:50:45.717Z,12.37
2022-08-29T06:53:37.002Z,12.42
2022-08-29T06:56:26.060Z,12.51
2022-08-29T06:59:13.751Z,12.56
2022-08-29T07:02:03.041Z,12.61
2022-08-29T07:04:50.201Z,12.69
2022-08-29T07:07:37.142Z,12.75
2022-08-29T07:10:24.604Z,12.82
2022-08-29T07:13:12.976Z,12.88
2022-08-29T07:16:00.251Z,12.95
2022-08-29T07:18:47.460Z,12.89
2022-08-29T07:21:37.682Z,13.10
2022-08-29T07:24:25.183Z,13.16
2022-08-29T07:27:12.164Z,13.22
2022-08-29T07:30:00.255Z,13.30
2022-08-29T07:32:47.462Z,13.27
2022-08-29T07:35:36.181Z,13.41
2022-08-29T07:38:23.203Z,13.47
2022-08-29T07:41:18.549Z,13.57
2022-08-29T07:44:05.561Z,13.64
2022-08-29T07:46:52.809Z,13.70
2022-08-29T07:49:41.871Z,13.76
2022-08-29T07:52:29.408Z,13.83
2022-08-29T07:55:17.078Z,13.68
2022-08-29T07:58:03.998Z,13.97
2022-08-29T08:00:51.583Z,13.96
2022-08-29T08:03:38.477Z,14.12
2022-08-29T08:06:27.167Z,14.18
2022-08-29T08:09:15.192Z,14.24
2022-08-29T08:12:07.647Z,14.25
2022-08-29T08:14:55.511Z,14.35
2022-08-29T08:17:44.169Z,14.43
2022-08-29T08:20:31.897Z,14.49
2022-08-29T08:23:19.047Z,14.55
2022-08-29T08:26:06.152Z,14.62
2022-08-29T08:28:53.459Z,14.63
2022-08-29T08:31:42.288Z,14.74
2022-08-29T08:34:29.341Z,14.81
2022-08-29T08:37:24.224Z,14.85
2022-08-29T08:40:18.987Z,14.92
2022-08-29T08:43:06.046Z,15.01
2022-08-29T08:46:01.475Z,15.08
2022-08-29T08:48:56.309Z,15.15
2022-08-29T08:51:52.136Z,15.13
2022-08-29T08:54:44.697Z,15.29
2022-08-29T08:57:33.292Z,15.38
2022-08-29T09:00:20.318Z,15.47
2022-08-29T09:03:35.791Z,15.57
2022-08-29T09:06:25.565Z,15.68
2022-08-29T09:09:30.667Z,15.77
2022-08-29T09:12:59.125Z,15.86
2022-08-29T09:15:53.474Z,15.98
2022-08-29T09:18:54.854Z,16.08
2022-08-29T09:21:42.680Z,16.17
2022-08-29T09:24:37.228Z,16.23
2022-08-29T09:27:24.496Z,16.35
2022-08-29T09:30:35.189Z,16.49
2022-08-29T09:33:28.005Z,16.60
2022-08-29T09:36:14.973Z,16.76
2022-08-29T09:39:02.053Z,16.95
2022-08-29T09:41:48.957Z,17.14
2022-08-29T09:44:42.630Z,17.30
2022-08-29T09:47:41.348Z,17.56
2022-08-29T09:50:37.685Z,17.79
2022-08-29T09:53:25.615Z,18.00
2022-08-29T09:56:13.364Z,18.14
2022-08-29T09:59:00.850Z,18.11
2022-08-29T10:01:49.304Z,18.32
2022-08-29T10:04:57.584Z,18.44
2022-08-29T10:07:29.093Z,18.60
2022-08-29T10:10:01.718Z,18.75
2022-08-29T10:12:38.436Z,18.91
2022-08-29T10:15:28.000Z,19.02
2022-08-29T10:18:20.746Z,19.18
2022-08-29T10:21:02.714Z,19.31
2022-08-29T10:23:37.660Z,19.36
2022-08-29T10:26:23.492Z,19.29
2022-08-29T10:29:32.081Z,19.43
2022-08-29T10:32:20.766Z,19.56
2022-08-29T10:35:11.937Z,19.67
2022-08-29T10:37:50.541Z,19.82
2022-08-29T10:40:47.851Z,19.98
2022-08-29T10:43:50.204Z,20.07
2022-08-29T10:46:39.892Z,20.22
2022-08-29T10:49:43.079Z,20.34
2022-08-29T10:52:26.719Z,20.37
2022-08-29T10:55:15.176Z,20.48
2022-08-29T10:58:05.578Z,20.48
2022-08-29T11:00:42.276Z,20.38
2022-08-29T11:03:38.833Z,20.36
2022-08-29T11:06:32.221Z,20.51
2022-08-29T11:09:08.698Z,20.66
2022-08-29T11:11:40.321Z,20.71
2022-08-29T11:14:39.448Z,20.68
2022-08-29T11:17:29.985Z,20.85
2022-08-29T11:20:39.133Z,20.89
2022-08-29T11:23:28.304Z,21.04
2022-08-29T11:26:20.665Z,21.02
2022-08-29T11:29:44.940Z,20.91
2022-08-29T11:32:41.035Z,20.92
2022-08-29T11:35:51.752Z,21.04
2022-08-29T11:38:57.604Z,21.23
2022-08-29T11:41:58.447Z,21.34
2022-08-29T11:44:51.706Z,21.46
2022-08-29T11:48:00.261Z,21.60
2022-08-29T11:50:56.645Z,21.69
2022-08-29T11:53:54.618Z,21.80
2022-08-29T11:56:50.591Z,21.98
2022-08-29T12:00:15.781Z,22.16
2022-08-29T12:03:15.027Z,22.27
2022-08-29T12:06:17.176Z,22.36
2022-08-29T12:09:22.777Z,22.37
2022-08-29T12:12:18.887Z,22.44
2022-08-29T12:15:11.308Z,22.48
2022-08-29T12:18:01.040Z,22.45
2022-08-29T12:20:31.833Z,22.35
2022-08-29T12:23:22.004Z,22.19
2022-08-29T12:26:16.302Z,22.31
2022-08-29T12:28:57.877Z,22.31
2022-08-29T12:32:18.012Z,22.28
2022-08-29T12:35:00.711Z,22.30
2022-08-29T12:37:30.882Z,22.29
2022-08-29T12:40:25.216Z,22.29
2022-08-29T12:43:26.376Z,22.27
2022-08-29T12:45:54.167Z,22.28
2022-08-29T12:48:40.305Z,22.33
2022-08-29T12:51:07.389Z,22.38
2022-08-29T12:53:36.883Z,22.30
2022-08-29T12:56:20.177Z,22.44
2022-08-29T12:58:57.072Z,22.46
2022-08-29T13:01:33.536Z,22.43
2022-08-29T13:04:13.565Z,22.44
2022-08-29T13:06:51.788Z,22.39
2022-08-29T13:09:28.980Z,22.32
2022-08-29T13:12:14.401Z,22.23
2022-08-29T13:14:58.473Z,22.18
2022-08-29T13:17:34.523Z,22.10
2022-08-29T13:20:46.071Z,21.99
2022-08-29T13:23:21.249Z,21.90
2022-08-29T13:25:56.674Z,21.80
2022-08-29T13:28:30.682Z,21.68
2022-08-29T13:31:04.984Z,21.57
2022-08-29T13:33:35.506Z,21.41
2022-08-29T13:36:41.238Z,21.35
2022-08-29T13:39:18.211Z,21.30
2022-08-29T13:42:27.233Z,21.25
2022-08-29T13:45:14.865Z,21.18
2022-08-29T13:48:15.840Z,21.14
2022-08-29T13:51:06.171Z,21.07
2022-08-29T13:53:34.438Z,20.99
2022-08-29T13:56:02.569Z,20.94
2022-08-29T13:58:32.170Z,20.90
2022-08-29T14:04:38.267Z,20.85
2022-08-29T14:07:28.592Z,20.82
2022-08-29T14:10:11.545Z,20.77
2022-08-29T14:12:58.578Z,20.72
2022-08-29T14:15:45.573Z,20.70
2022-08-29T14:18:33.086Z,20.67
2022-08-29T14:21:20.330Z,20.64
2022-08-29T14:24:07.426Z,20.59
2022-08-29T14:27:01.051Z,20.52
2022-08-29T14:29:49.212Z,20.46
2022-08-29T14:32:36.269Z,20.39
2022-08-29T14:35:04.965Z,20.31
2022-08-29T14:37:32.912Z,20.12
2022-08-29T14:40:00.091Z,20.04
2022-08-29T14:42:27.073Z,20.12
2022-08-29T14:44:54.087Z,19.89
2022-08-29T14:47:41.016Z,20.03
2022-08-29T14:50:28.363Z,19.96
2022-08-29T14:53:15.384Z,19.88
2022-08-29T14:56:02.446Z,19.77
2022-08-29T14:58:49.956Z,19.66
2022-08-29T15:01:36.916Z,19.58
2022-08-29T15:04:36.282Z,19.43
2022-08-29T15:07:27.410Z,19.37
2022-08-29T15:10:14.549Z,19.40
2022-08-29T15:13:01.676Z,19.36
2022-08-29T15:15:49.117Z,19.29
2022-08-29T15:19:14.820Z,19.20
2022-08-29T15:21:43.391Z,19.10
2022-08-29T15:24:30.265Z,19.01
2022-08-29T15:27:18.106Z,18.90
2022-08-29T15:30:05.103Z,18.84
2022-08-29T15:32:52.517Z,18.81
2022-08-29T15:35:39.816Z,18.81
2022-08-29T15:38:28.076Z,18.81
2022-08-29T15:41:14.992Z,18.79
2022-08-29T15:44:02.072Z,18.77
2022-08-29T15:46:50.936Z,18.77
2022-08-29T15:49:42.529Z,18.79
2022-08-29T15:52:31.154Z,18.71
2022-08-29T15:54:58.671Z,18.77
2022-08-29T15:57:25.724Z,18.73
2022-08-29T15:59:59.708Z,18.54
2022-08-29T16:02:27.791Z,18.50
2022-08-29T16:04:57.207Z,18.47
2022-08-29T16:07:28.737Z,18.44
2022-08-29T16:09:59.799Z,18.27
2022-08-29T16:12:28.457Z,18.36
2022-08-29T16:14:59.995Z,18.31
2022-08-29T16:17:32.176Z,18.28
2022-08-29T16:20:21.105Z,18.28
2022-08-29T16:23:08.201Z,18.23
2022-08-29T16:25:55.238Z,18.21
2022-08-29T16:28:22.261Z,18.21
2022-08-29T16:30:51.456Z,18.23
2022-08-29T16:33:19.606Z,18.25
2022-08-29T16:35:46.733Z,18.23
2022-08-29T16:38:13.824Z,18.23
2022-08-29T16:40:41.016Z,18.19
2022-08-29T16:43:08.328Z,18.14
2022-08-29T16:45:35.577Z,18.07
2022-08-29T16:48:03.080Z,17.99
2022-08-29T16:50:31.969Z,18.02
2022-08-29T16:52:59.454Z,18.01
2022-08-29T16:55:26.504Z,17.99
2022-08-29T16:58:12.258Z,17.98
2022-08-29T17:00:40.359Z,17.98
2022-08-29T17:03:07.942Z,17.97
2022-08-29T17:05:35.149Z,17.96
2022-08-29T17:08:02.114Z,17.98
2022-08-29T17:10:29.136Z,17.96
2022-08-29T17:12:56.128Z,17.95
2022-08-29T17:15:23.123Z,17.95
2022-08-29T17:17:50.100Z,17.93
2022-08-29T17:20:17.176Z,17.90
2022-08-29T17:22:44.077Z,17.88
2022-08-29T17:25:11.174Z,17.87
2022-08-29T17:27:42.862Z,17.82
2022-08-29T17:30:17.657Z,17.72
2022-08-29T17:32:47.704Z,17.75
2022-08-29T17:35:15.488Z,17.74
2022-08-29T17:37:42.909Z,17.71
2022-08-29T17:40:13.235Z,17.66
2022-08-29T17:42:44.046Z,17.63
2022-08-29T17:45:11.162Z,17.52
2022-08-29T17:47:38.186Z,17.26
2022-08-29T17:50:05.819Z,17.52
2022-08-29T17:52:32.744Z,17.49
2022-08-29T17:55:03.767Z,17.43
2022-08-29T17:57:34.244Z,17.30
2022-08-29T18:00:01.425Z,17.33
2022-08-29T18:02:37.793Z,17.27
2022-08-29T18:05:05.467Z,17.20
2022-08-29T18:07:33.543Z,17.14
2022-08-29T18:10:01.257Z,17.08
2022-08-29T18:12:28.612Z,16.86
2022-08-29T18:14:55.491Z,16.89
2022-08-29T18:17:22.464Z,16.87
2022-08-29T18:19:49.628Z,16.79
2022-08-29T18:22:16.582Z,16.72
2022-08-29T18:24:43.519Z,16.65
2022-08-29T18:27:10.717Z,16.56
2022-08-29T18:29:37.681Z,16.49
2022-08-29T18:32:04.721Z,16.40
2022-08-29T18:34:31.838Z,16.33
2022-08-29T18:36:58.873Z,16.25
2022-08-29T18:39:25.957Z,16.21
2022-08-29T18:41:53.153Z,16.17
2022-08-29T18:44:20.104Z,16.12
2022-08-29T18:46:51.545Z,16.08
2022-08-29T18:49:19.847Z,16.03
2022-08-29T18:51:47.005Z,15.98
2022-08-29T18:54:18.763Z,15.92
2022-08-29T18:56:46.528Z,15.88
2022-08-29T18:59:13.453Z,15.78
2022-08-29T19:01:42.263Z,15.76
2022-08-29T19:04:09.378Z,15.73
2022-08-29T19:06:36.284Z,15.63
2022-08-29T19:09:23.824Z,15.64
2022-08-29T19:12:10.747Z,15.60
2022-08-29T19:14:59.181Z,15.56
2022-08-29T19:17:46.078Z,15.49
2022-08-29T19:20:34.425Z,15.47
2022-08-29T19:23:21.501Z,15.44
2022-08-29T19:26:08.838Z,15.40
2022-08-29T19:28:58.676Z,15.37
2022-08-29T19:31:46.731Z,15.18
2022-08-29T19:34:33.672Z,15.30
2022-08-29T19:37:20.766Z,15.27
2022-08-29T19:40:07.796Z,15.24
2022-08-29T19:42:54.965Z,15.21
2022-08-29T19:45:42.651Z,15.19
2022-08-29T19:48:30.321Z,15.12
2022-08-29T19:51:17.213Z,15.12
2022-08-29T19:54:04.944Z,15.10
2022-08-29T19:56:52.491Z,14.96
2022-08-29T19:59:39.573Z,15.02
2022-08-29T20:02:29.272Z,14.98
2022-08-29T20:05:16.386Z,14.94
2022-08-29T20:08:04.003Z,14.91
2022-08-29T20:10:52.094Z,14.87
2022-08-29T20:13:39.378Z,14.87
2022-08-29T20:16:32.595Z,14.79
2022-08-29T20:19:20.229Z,14.83
2022-08-29T20:22:08.321Z,14.83
2022-08-29T20:24:55.268Z,14.83
2022-08-29T20:27:43.118Z,14.81
2022-08-29T20:30:33.136Z,14.78
2022-08-29T20:33:20.675Z,14.77
2022-08-29T20:36:05.995Z,14.76
2022-08-29T20:38:53.021Z,14.59
2022-08-29T20:41:40.123Z,14.71
2022-08-29T20:44:32.964Z,14.67
2022-08-29T20:47:20.874Z,14.65
2022-08-29T20:50:09.285Z,14.50
2022-08-29T20:52:37.533Z,14.62
2022-08-29T20:55:24.780Z,14.62
2022-08-29T20:58:11.693Z,14.61
2022-08-29T21:00:38.617Z,14.60
2022-08-29T21:03:24.396Z,14.60
2022-08-29T21:05:51.420Z,14.60
2022-08-29T21:08:23.220Z,14.58
2022-08-29T21:10:53.387Z,14.57
2022-08-29T21:13:20.642Z,14.55
2022-08-29T21:15:48.294Z,14.50
2022-08-29T21:18:20.121Z,14.52
2022-08-29T21:21:09.613Z,14.51
2022-08-29T21:23:56.665Z,14.47
2022-08-29T21:26:43.568Z,14.46
2022-08-29T21:29:30.432Z,14.42
2022-08-29T21:32:17.583Z,14.43
2022-08-29T21:35:04.593Z,14.41
2022-08-29T21:37:51.789Z,14.41
2022-08-29T21:40:44.138Z,14.37
2022-08-29T21:43:38.045Z,14.35
2022-08-29T21:46:35.016Z,14.35
2022-08-29T21:49:25.113Z,14.35
2022-08-29T21:52:12.812Z,14.35
2022-08-29T21:54:59.644Z,14.35
2022-08-29T21:57:45.184Z,14.33
2022-08-29T22:00:33.931Z,14.33
2022-08-29T22:03:24.642Z,14.32
2022-08-29T22:06:11.552Z,14.31
2022-08-29T22:08:59.573Z,14.28
2022-08-29T22:11:50.251Z,14.28
2022-08-29T22:14:37.232Z,14.26
2022-08-29T22:17:24.247Z,14.25
2022-08-29T22:20:11.283Z,14.23
2022-08-29T22:22:58.325Z,14.22
2022-08-29T22:25:45.655Z,14.22
2022-08-29T22:28:33.072Z,14.22
2022-08-29T22:31:20.229Z,14.20
2022-08-29T22:34:08.584Z,14.22
2022-08-29T22:36:55.688Z,14.21
2022-08-29T22:39:42.734Z,14.22
2022-08-29T22:42:29.839Z,14.21
2022-08-29T22:45:16.860Z,14.21
2022-08-29T22:48:04.860Z,14.23
2022-08-29T22:50:58.201Z,14.22
2022-08-29T22:53:45.728Z,14.22
2022-08-29T22:56:32.772Z,14.21
2022-08-29T22:59:20.099Z,14.19
2022-08-29T23:02:07.152Z,14.18
2022-08-29T23:04:54.333Z,14.18
2022-08-29T23:07:41.435Z,13.77
2022-08-29T23:10:30.058Z,14.13
2022-08-29T23:13:17.253Z,14.17
2022-08-29T23:16:04.561Z,14.17
2022-08-29T23:18:51.587Z,14.16
2022-08-29T23:21:39.675Z,14.17
2022-08-29T23:24:28.534Z,14.10
2022-08-29T23:27:15.534Z,14.18
2022-08-29T23:30:02.538Z,14.16
2022-08-29T23:32:49.612Z,14.16
2022-08-29T23:35:39.322Z,14.14
2022-08-29T23:38:26.438Z,14.04
2022-08-29T23:41:17.493Z,14.13
2022-08-29T23:44:05.119Z,13.93
2022-08-29T23:46:52.505Z,14.10
2022-08-29T23:49:39.597Z,14.08
2022-08-29T23:52:26.697Z,14.07
2022-08-29T23:55:13.745Z,14.06
2022-08-29T23:58:01.078Z,14.04
